sensor_id;sensor_type;location;lat;lon;timestamp;P1;durP1;ratioP1;P2;durP2;ratioP2
15287;SDS011;7745;48.708;9.026;2023-04-06T00:00:15;11.73;;;8.80;;
15287;SDS011;7745;48.708;9.026;2023-04-06T00:02:42;12.13;;;8.03;;
15287;SDS011;7745;48.708;9.026;2023-04-06T00:05:09;12.13;;;9.10;;
15287;SDS011;7745;48.708;9.026;2023-04-06T00:07:36;10.30;;;9.07;;
15287;SDS011;7745;48.708;9.026;2023-04-06T00:10:03;11.13;;;7.87;;
15287;SDS011;7745;48.708;9.026;2023-04-06T00:12:31;11.90;;;9.23;;
15287;SDS011;7745;48.708;9.026;2023-04-06T00:14:58;14.17;;;8.80;;
15287;SDS011;7745;48.708;9.026;2023-04-06T00:17:27;12.77;;;8.50;;
15287;SDS011;7745;48.708;9.026;2023-04-06T00:19:54;12.23;;;8.70;;
15287;SDS011;7745;48.708;9.026;2023-04-06T00:22:21;13.63;;;8.80;;
15287;SDS011;7745;48.708;9.026;2023-04-06T00:24:48;11.03;;;8.63;;
15287;SDS011;7745;48.708;9.026;2023-04-06T00:27:15;11.80;;;8.90;;
15287;SDS011;7745;48.708;9.026;2023-04-06T00:29:43;12.73;;;8.93;;
15287;SDS011;7745;48.708;9.026;2023-04-06T00:32:10;12.93;;;9.07;;
15287;SDS011;7745;48.708;9.026;2023-04-06T00:34:38;12.87;;;8.57;;
15287;SDS011;7745;48.708;9.026;2023-04-06T00:37:05;10.37;;;8.53;;
15287;SDS011;7745;48.708;9.026;2023-04-06T00:39:32;13.23;;;9.23;;
15287;SDS011;7745;48.708;9.026;2023-04-06T00:41:59;11.43;;;9.10;;
15287;SDS011;7745;48.708;9.026;2023-04-06T00:44:26;13.63;;;9.17;;
15287;SDS011;7745;48.708;9.026;2023-04-06T00:46:53;12.63;;;9.93;;
15287;SDS011;7745;48.708;9.026;2023-04-06T00:49:20;14.93;;;10.10;;
15287;SDS011;7745;48.708;9.026;2023-04-06T00:51:48;14.30;;;9.73;;
15287;SDS011;7745;48.708;9.026;2023-04-06T00:54:15;11.83;;;9.33;;
15287;SDS011;7745;48.708;9.026;2023-04-06T00:56:42;10.47;;;9.07;;
15287;SDS011;7745;48.708;9.026;2023-04-06T00:59:10;12.33;;;9.13;;
15287;SDS011;7745;48.708;9.026;2023-04-06T01:01:37;12.27;;;9.13;;
15287;SDS011;7745;48.708;9.026;2023-04-06T01:04:03;12.70;;;9.27;;
15287;SDS011;7745;48.708;9.026;2023-04-06T01:06:30;10.30;;;8.97;;
15287;SDS011;7745;48.708;9.026;2023-04-06T01:08:58;11.10;;;9.07;;
15287;SDS011;7745;48.708;9.026;2023-04-06T01:11:26;11.67;;;9.23;;
15287;SDS011;7745;48.708;9.026;2023-04-06T01:13:53;11.70;;;9.00;;
15287;SDS011;7745;48.708;9.026;2023-04-06T01:16:20;14.70;;;9.27;;
15287;SDS011;7745;48.708;9.026;2023-04-06T01:18:47;12.17;;;9.07;;
15287;SDS011;7745;48.708;9.026;2023-04-06T01:21:15;11.83;;;8.77;;
15287;SDS011;7745;48.708;9.026;2023-04-06T01:23:43;11.40;;;8.90;;
15287;SDS011;7745;48.708;9.026;2023-04-06T01:26:11;12.83;;;9.23;;
15287;SDS011;7745;48.708;9.026;2023-04-06T01:28:38;12.17;;;9.03;;
15287;SDS011;7745;48.708;9.026;2023-04-06T01:31:05;10.03;;;8.20;;
15287;SDS011;7745;48.708;9.026;2023-04-06T01:33:34;11.53;;;9.00;;
15287;SDS011;7745;48.708;9.026;2023-04-06T01:36:01;12.07;;;8.70;;
15287;SDS011;7745;48.708;9.026;2023-04-06T01:38:29;11.03;;;8.30;;
15287;SDS011;7745;48.708;9.026;2023-04-06T01:40:57;12.10;;;9.43;;
15287;SDS011;7745;48.708;9.026;2023-04-06T01:43:24;11.43;;;8.80;;
15287;SDS011;7745;48.708;9.026;2023-04-06T01:45:51;10.63;;;8.37;;
15287;SDS011;7745;48.708;9.026;2023-04-06T01:48:18;11.87;;;8.80;;
15287;SDS011;7745;48.708;9.026;2023-04-06T01:50:45;10.07;;;8.23;;
15287;SDS011;7745;48.708;9.026;2023-04-06T01:53:12;13.10;;;8.50;;
15287;SDS011;7745;48.708;9.026;2023-04-06T01:55:39;11.77;;;9.50;;
15287;SDS011;7745;48.708;9.026;2023-04-06T01:58:07;12.07;;;9.13;;
15287;SDS011;7745;48.708;9.026;2023-04-06T02:00:34;11.97;;;8.93;;
15287;SDS011;7745;48.708;9.026;2023-04-06T02:03:01;12.93;;;9.63;;
15287;SDS011;7745;48.708;9.026;2023-04-06T02:05:29;11.87;;;8.67;;
15287;SDS011;7745;48.708;9.026;2023-04-06T02:07:58;12.60;;;9.50;;
15287;SDS011;7745;48.708;9.026;2023-04-06T02:10:25;10.03;;;8.60;;
15287;SDS011;7745;48.708;9.026;2023-04-06T02:12:54;10.97;;;8.43;;
15287;SDS011;7745;48.708;9.026;2023-04-06T02:15:22;12.70;;;9.30;;
15287;SDS011;7745;48.708;9.026;2023-04-06T02:17:49;13.67;;;8.97;;
15287;SDS011;7745;48.708;9.026;2023-04-06T02:20:16;13.77;;;9.63;;
15287;SDS011;7745;48.708;9.026;2023-04-06T02:22:42;14.17;;;9.50;;
15287;SDS011;7745;48.708;9.026;2023-04-06T02:25:09;12.20;;;9.43;;
15287;SDS011;7745;48.708;9.026;2023-04-06T02:27:36;10.87;;;9.30;;
15287;SDS011;7745;48.708;9.026;2023-04-06T02:30:04;10.97;;;9.10;;
15287;SDS011;7745;48.708;9.026;2023-04-06T02:32:33;15.03;;;9.67;;
15287;SDS011;7745;48.708;9.026;2023-04-06T02:35:01;13.40;;;10.03;;
15287;SDS011;7745;48.708;9.026;2023-04-06T02:37:28;14.73;;;9.73;;
15287;SDS011;7745;48.708;9.026;2023-04-06T02:39:55;12.67;;;9.17;;
15287;SDS011;7745;48.708;9.026;2023-04-06T02:42:22;10.97;;;8.60;;
15287;SDS011;7745;48.708;9.026;2023-04-06T02:44:48;14.73;;;9.97;;
15287;SDS011;7745;48.708;9.026;2023-04-06T02:47:15;12.00;;;9.73;;
15287;SDS011;7745;48.708;9.026;2023-04-06T02:49:43;11.77;;;8.63;;
15287;SDS011;7745;48.708;9.026;2023-04-06T02:52:10;14.37;;;9.57;;
15287;SDS011;7745;48.708;9.026;2023-04-06T02:54:37;12.97;;;9.63;;
15287;SDS011;7745;48.708;9.026;2023-04-06T02:57:04;14.10;;;9.33;;
15287;SDS011;7745;48.708;9.026;2023-04-06T02:59:31;12.37;;;9.53;;
15287;SDS011;7745;48.708;9.026;2023-04-06T03:01:58;15.47;;;9.37;;
15287;SDS011;7745;48.708;9.026;2023-04-06T03:04:25;14.80;;;9.47;;
15287;SDS011;7745;48.708;9.026;2023-04-06T03:06:53;10.63;;;8.93;;
15287;SDS011;7745;48.708;9.026;2023-04-06T03:09:21;12.53;;;8.83;;
15287;SDS011;7745;48.708;9.026;2023-04-06T03:11:48;12.67;;;9.53;;
15287;SDS011;7745;48.708;9.026;2023-04-06T03:14:15;13.17;;;9.03;;
15287;SDS011;7745;48.708;9.026;2023-04-06T03:16:46;10.83;;;8.83;;
15287;SDS011;7745;48.708;9.026;2023-04-06T03:19:13;12.73;;;9.10;;
15287;SDS011;7745;48.708;9.026;2023-04-06T03:21:40;11.50;;;9.23;;
15287;SDS011;7745;48.708;9.026;2023-04-06T03:24:09;12.47;;;8.80;;
15287;SDS011;7745;48.708;9.026;2023-04-06T03:26:36;10.47;;;8.73;;
15287;SDS011;7745;48.708;9.026;2023-04-06T03:29:02;14.40;;;8.53;;
15287;SDS011;7745;48.708;9.026;2023-04-06T03:31:29;12.37;;;8.47;;
15287;SDS011;7745;48.708;9.026;2023-04-06T03:33:56;12.83;;;9.03;;
15287;SDS011;7745;48.708;9.026;2023-04-06T03:36:24;10.43;;;8.80;;
15287;SDS011;7745;48.708;9.026;2023-04-06T03:38:51;10.60;;;8.57;;
15287;SDS011;7745;48.708;9.026;2023-04-06T03:41:20;13.07;;;9.43;;
15287;SDS011;7745;48.708;9.026;2023-04-06T03:43:47;10.93;;;9.00;;
15287;SDS011;7745;48.708;9.026;2023-04-06T03:46:14;10.97;;;8.97;;
15287;SDS011;7745;48.708;9.026;2023-04-06T03:48:41;12.53;;;9.10;;
15287;SDS011;7745;48.708;9.026;2023-04-06T03:51:08;11.97;;;9.70;;
15287;SDS011;7745;48.708;9.026;2023-04-06T03:53:35;12.57;;;8.90;;
15287;SDS011;7745;48.708;9.026;2023-04-06T03:56:02;11.87;;;9.23;;
15287;SDS011;7745;48.708;9.026;2023-04-06T03:58:31;13.60;;;8.80;;
15287;SDS011;7745;48.708;9.026;2023-04-06T04:00:58;11.50;;;8.77;;
15287;SDS011;7745;48.708;9.026;2023-04-06T04:03:25;13.33;;;9.77;;
15287;SDS011;7745;48.708;9.026;2023-04-06T04:05:52;12.43;;;8.23;;
15287;SDS011;7745;48.708;9.026;2023-04-06T04:08:20;12.60;;;9.47;;
15287;SDS011;7745;48.708;9.026;2023-04-06T04:10:46;11.97;;;9.23;;
15287;SDS011;7745;48.708;9.026;2023-04-06T04:13:13;10.90;;;9.77;;
15287;SDS011;7745;48.708;9.026;2023-04-06T04:15:42;13.23;;;9.17;;
15287;SDS011;7745;48.708;9.026;2023-04-06T04:18:09;11.60;;;9.17;;
15287;SDS011;7745;48.708;9.026;2023-04-06T04:20:36;15.13;;;9.33;;
15287;SDS011;7745;48.708;9.026;2023-04-06T04:23:02;10.57;;;8.33;;
15287;SDS011;7745;48.708;9.026;2023-04-06T04:25:29;13.50;;;9.43;;
15287;SDS011;7745;48.708;9.026;2023-04-06T04:27:56;12.67;;;9.60;;
15287;SDS011;7745;48.708;9.026;2023-04-06T04:30:23;13.17;;;9.53;;
15287;SDS011;7745;48.708;9.026;2023-04-06T04:32:51;11.73;;;9.07;;
15287;SDS011;7745;48.708;9.026;2023-04-06T04:35:18;10.57;;;8.90;;
15287;SDS011;7745;48.708;9.026;2023-04-06T04:37:45;14.57;;;9.33;;
15287;SDS011;7745;48.708;9.026;2023-04-06T04:40:12;11.93;;;9.77;;
15287;SDS011;7745;48.708;9.026;2023-04-06T04:42:39;15.07;;;10.63;;
15287;SDS011;7745;48.708;9.026;2023-04-06T04:45:06;13.80;;;10.03;;
15287;SDS011;7745;48.708;9.026;2023-04-06T04:47:33;13.43;;;9.73;;
15287;SDS011;7745;48.708;9.026;2023-04-06T04:50:02;14.37;;;10.50;;
15287;SDS011;7745;48.708;9.026;2023-04-06T04:52:29;11.73;;;9.67;;
15287;SDS011;7745;48.708;9.026;2023-04-06T04:54:56;15.13;;;10.63;;
15287;SDS011;7745;48.708;9.026;2023-04-06T04:57:22;16.77;;;10.30;;
15287;SDS011;7745;48.708;9.026;2023-04-06T04:59:49;13.70;;;10.03;;
15287;SDS011;7745;48.708;9.026;2023-04-06T05:02:16;15.20;;;9.67;;
15287;SDS011;7745;48.708;9.026;2023-04-06T05:04:43;15.73;;;10.20;;
15287;SDS011;7745;48.708;9.026;2023-04-06T05:07:11;12.30;;;9.40;;
15287;SDS011;7745;48.708;9.026;2023-04-06T05:09:40;15.67;;;10.20;;
15287;SDS011;7745;48.708;9.026;2023-04-06T05:12:07;12.27;;;10.30;;
15287;SDS011;7745;48.708;9.026;2023-04-06T05:14:35;11.07;;;9.67;;
15287;SDS011;7745;48.708;9.026;2023-04-06T05:17:02;14.13;;;10.43;;
15287;SDS011;7745;48.708;9.026;2023-04-06T05:19:29;11.40;;;9.57;;
15287;SDS011;7745;48.708;9.026;2023-04-06T05:21:56;15.10;;;10.27;;
15287;SDS011;7745;48.708;9.026;2023-04-06T05:24:24;13.40;;;10.00;;
15287;SDS011;7745;48.708;9.026;2023-04-06T05:26:51;14.60;;;10.10;;
15287;SDS011;7745;48.708;9.026;2023-04-06T05:29:18;14.37;;;10.33;;
15287;SDS011;7745;48.708;9.026;2023-04-06T05:31:46;13.60;;;10.17;;
15287;SDS011;7745;48.708;9.026;2023-04-06T05:34:13;15.77;;;11.60;;
15287;SDS011;7745;48.708;9.026;2023-04-06T05:36:40;14.30;;;10.93;;
15287;SDS011;7745;48.708;9.026;2023-04-06T05:39:07;15.90;;;10.53;;
15287;SDS011;7745;48.708;9.026;2023-04-06T05:41:35;16.03;;;10.50;;
15287;SDS011;7745;48.708;9.026;2023-04-06T05:44:02;18.80;;;11.23;;
15287;SDS011;7745;48.708;9.026;2023-04-06T05:46:28;16.30;;;10.93;;
15287;SDS011;7745;48.708;9.026;2023-04-06T05:48:55;14.57;;;11.30;;
15287;SDS011;7745;48.708;9.026;2023-04-06T05:51:22;13.47;;;10.87;;
15287;SDS011;7745;48.708;9.026;2023-04-06T05:53:50;16.53;;;12.33;;
15287;SDS011;7745;48.708;9.026;2023-04-06T05:56:16;16.40;;;12.90;;
15287;SDS011;7745;48.708;9.026;2023-04-06T05:58:45;16.63;;;12.50;;
15287;SDS011;7745;48.708;9.026;2023-04-06T06:01:12;17.13;;;11.33;;
15287;SDS011;7745;48.708;9.026;2023-04-06T06:03:39;16.57;;;12.27;;
15287;SDS011;7745;48.708;9.026;2023-04-06T06:06:08;15.57;;;11.13;;
15287;SDS011;7745;48.708;9.026;2023-04-06T06:08:35;15.47;;;11.80;;
15287;SDS011;7745;48.708;9.026;2023-04-06T06:11:02;15.10;;;12.33;;
15287;SDS011;7745;48.708;9.026;2023-04-06T06:13:29;24.77;;;12.60;;
15287;SDS011;7745;48.708;9.026;2023-04-06T06:15:57;16.07;;;12.10;;
15287;SDS011;7745;48.708;9.026;2023-04-06T06:18:24;17.57;;;12.00;;
15287;SDS011;7745;48.708;9.026;2023-04-06T06:20:51;15.10;;;11.10;;
15287;SDS011;7745;48.708;9.026;2023-04-06T06:23:18;14.63;;;11.33;;
15287;SDS011;7745;48.708;9.026;2023-04-06T06:25:45;16.90;;;12.50;;
15287;SDS011;7745;48.708;9.026;2023-04-06T06:28:12;17.20;;;11.67;;
15287;SDS011;7745;48.708;9.026;2023-04-06T06:30:39;14.67;;;11.17;;
15287;SDS011;7745;48.708;9.026;2023-04-06T06:33:07;17.67;;;11.93;;
15287;SDS011;7745;48.708;9.026;2023-04-06T06:35:34;13.33;;;11.43;;
15287;SDS011;7745;48.708;9.026;2023-04-06T06:38:01;20.73;;;12.10;;
15287;SDS011;7745;48.708;9.026;2023-04-06T06:40:28;13.13;;;11.33;;
15287;SDS011;7745;48.708;9.026;2023-04-06T06:42:55;14.53;;;10.83;;
15287;SDS011;7745;48.708;9.026;2023-04-06T06:45:22;15.00;;;10.67;;
15287;SDS011;7745;48.708;9.026;2023-04-06T06:47:50;16.50;;;11.50;;
15287;SDS011;7745;48.708;9.026;2023-04-06T06:50:18;15.00;;;11.10;;
15287;SDS011;7745;48.708;9.026;2023-04-06T06:52:45;12.03;;;10.53;;
15287;SDS011;7745;48.708;9.026;2023-04-06T06:55:12;18.60;;;11.87;;
15287;SDS011;7745;48.708;9.026;2023-04-06T06:57:40;16.00;;;11.20;;
15287;SDS011;7745;48.708;9.026;2023-04-06T07:00:08;16.33;;;11.33;;
15287;SDS011;7745;48.708;9.026;2023-04-06T07:02:36;17.27;;;11.70;;
15287;SDS011;7745;48.708;9.026;2023-04-06T07:05:03;16.97;;;10.90;;
15287;SDS011;7745;48.708;9.026;2023-04-06T07:07:32;20.53;;;11.80;;
15287;SDS011;7745;48.708;9.026;2023-04-06T07:09:59;19.10;;;11.77;;
15287;SDS011;7745;48.708;9.026;2023-04-06T07:12:26;19.10;;;11.50;;
15287;SDS011;7745;48.708;9.026;2023-04-06T07:14:53;13.77;;;11.17;;
15287;SDS011;7745;48.708;9.026;2023-04-06T07:17:20;19.90;;;11.70;;
15287;SDS011;7745;48.708;9.026;2023-04-06T07:19:47;18.40;;;11.00;;
15287;SDS011;7745;48.708;9.026;2023-04-06T07:22:14;15.17;;;10.63;;
15287;SDS011;7745;48.708;9.026;2023-04-06T07:24:42;15.73;;;11.53;;
15287;SDS011;7745;48.708;9.026;2023-04-06T07:27:09;14.00;;;10.87;;
15287;SDS011;7745;48.708;9.026;2023-04-06T07:29:36;15.37;;;11.13;;
15287;SDS011;7745;48.708;9.026;2023-04-06T07:32:03;13.80;;;11.27;;
15287;SDS011;7745;48.708;9.026;2023-04-06T07:34:32;19.70;;;11.00;;
15287;SDS011;7745;48.708;9.026;2023-04-06T07:36:59;16.23;;;11.40;;
15287;SDS011;7745;48.708;9.026;2023-04-06T07:39:26;18.70;;;11.27;;
15287;SDS011;7745;48.708;9.026;2023-04-06T07:41:54;16.43;;;11.33;;
15287;SDS011;7745;48.708;9.026;2023-04-06T07:44:21;14.87;;;11.13;;
15287;SDS011;7745;48.708;9.026;2023-04-06T07:46:48;19.03;;;11.90;;
15287;SDS011;7745;48.708;9.026;2023-04-06T07:49:15;19.30;;;12.07;;
15287;SDS011;7745;48.708;9.026;2023-04-06T07:51:42;16.43;;;11.20;;
15287;SDS011;7745;48.708;9.026;2023-04-06T07:54:09;16.07;;;11.10;;
15287;SDS011;7745;48.708;9.026;2023-04-06T07:56:36;16.80;;;11.33;;
15287;SDS011;7745;48.708;9.026;2023-04-06T07:59:04;17.43;;;11.07;;
15287;SDS011;7745;48.708;9.026;2023-04-06T08:01:31;17.93;;;10.77;;
15287;SDS011;7745;48.708;9.026;2023-04-06T08:03:58;18.80;;;10.83;;
15287;SDS011;7745;48.708;9.026;2023-04-06T08:06:27;13.67;;;11.20;;
15287;SDS011;7745;48.708;9.026;2023-04-06T08:08:54;18.80;;;11.27;;
15287;SDS011;7745;48.708;9.026;2023-04-06T08:11:21;19.83;;;11.40;;
15287;SDS011;7745;48.708;9.026;2023-04-06T08:13:48;12.97;;;10.60;;
15287;SDS011;7745;48.708;9.026;2023-04-06T08:16:16;16.57;;;10.47;;
15287;SDS011;7745;48.708;9.026;2023-04-06T08:18:43;13.00;;;10.97;;
15287;SDS011;7745;48.708;9.026;2023-04-06T08:21:10;13.13;;;10.07;;
15287;SDS011;7745;48.708;9.026;2023-04-06T08:23:37;12.27;;;9.73;;
15287;SDS011;7745;48.708;9.026;2023-04-06T08:26:04;12.90;;;9.83;;
15287;SDS011;7745;48.708;9.026;2023-04-06T08:28:31;14.23;;;10.07;;
15287;SDS011;7745;48.708;9.026;2023-04-06T08:30:59;12.30;;;8.97;;
15287;SDS011;7745;48.708;9.026;2023-04-06T08:33:31;12.87;;;9.60;;
15287;SDS011;7745;48.708;9.026;2023-04-06T08:36:06;11.37;;;9.00;;
15287;SDS011;7745;48.708;9.026;2023-04-06T08:38:33;14.03;;;9.13;;
15287;SDS011;7745;48.708;9.026;2023-04-06T08:41:00;15.90;;;9.77;;
15287;SDS011;7745;48.708;9.026;2023-04-06T08:43:34;14.20;;;9.47;;
15287;SDS011;7745;48.708;9.026;2023-04-06T08:46:07;12.93;;;9.20;;
15287;SDS011;7745;48.708;9.026;2023-04-06T08:48:36;11.83;;;9.20;;
15287;SDS011;7745;48.708;9.026;2023-04-06T08:51:06;13.77;;;9.57;;
15287;SDS011;7745;48.708;9.026;2023-04-06T08:53:33;11.07;;;8.77;;
15287;SDS011;7745;48.708;9.026;2023-04-06T08:56:00;12.83;;;9.17;;
15287;SDS011;7745;48.708;9.026;2023-04-06T08:58:28;10.93;;;9.07;;
15287;SDS011;7745;48.708;9.026;2023-04-06T09:00:58;10.67;;;8.13;;
15287;SDS011;7745;48.708;9.026;2023-04-06T09:03:27;11.60;;;8.20;;
15287;SDS011;7745;48.708;9.026;2023-04-06T09:05:57;12.33;;;8.57;;
15287;SDS011;7745;48.708;9.026;2023-04-06T09:08:25;11.87;;;9.07;;
15287;SDS011;7745;48.708;9.026;2023-04-06T09:10:52;10.10;;;8.43;;
15287;SDS011;7745;48.708;9.026;2023-04-06T09:13:19;9.30;;;8.13;;
15287;SDS011;7745;48.708;9.026;2023-04-06T09:15:46;11.47;;;9.03;;
15287;SDS011;7745;48.708;9.026;2023-04-06T09:18:27;13.13;;;8.93;;
15287;SDS011;7745;48.708;9.026;2023-04-06T09:21:00;9.90;;;7.73;;
15287;SDS011;7745;48.708;9.026;2023-04-06T09:23:29;12.27;;;7.80;;
15287;SDS011;7745;48.708;9.026;2023-04-06T09:26:05;10.50;;;7.53;;
15287;SDS011;7745;48.708;9.026;2023-04-06T09:28:43;11.50;;;7.83;;
15287;SDS011;7745;48.708;9.026;2023-04-06T09:31:11;11.47;;;7.37;;
15287;SDS011;7745;48.708;9.026;2023-04-06T09:33:38;10.37;;;7.90;;
15287;SDS011;7745;48.708;9.026;2023-04-06T09:36:08;8.07;;;6.93;;
15287;SDS011;7745;48.708;9.026;2023-04-06T09:38:36;11.67;;;7.77;;
15287;SDS011;7745;48.708;9.026;2023-04-06T09:41:04;8.53;;;7.60;;
15287;SDS011;7745;48.708;9.026;2023-04-06T09:43:31;9.33;;;7.10;;
15287;SDS011;7745;48.708;9.026;2023-04-06T09:45:58;11.77;;;7.30;;
15287;SDS011;7745;48.708;9.026;2023-04-06T09:48:29;8.63;;;6.77;;
15287;SDS011;7745;48.708;9.026;2023-04-06T09:50:59;6.80;;;6.10;;
15287;SDS011;7745;48.708;9.026;2023-04-06T09:53:32;8.47;;;6.40;;
15287;SDS011;7745;48.708;9.026;2023-04-06T09:56:06;7.53;;;5.97;;
15287;SDS011;7745;48.708;9.026;2023-04-06T09:58:37;8.37;;;6.10;;
15287;SDS011;7745;48.708;9.026;2023-04-06T10:01:09;7.50;;;6.47;;
15287;SDS011;7745;48.708;9.026;2023-04-06T10:03:40;7.67;;;6.73;;
15287;SDS011;7745;48.708;9.026;2023-04-06T10:06:15;8.50;;;6.10;;
15287;SDS011;7745;48.708;9.026;2023-04-06T10:08:47;7.07;;;6.10;;
15287;SDS011;7745;48.708;9.026;2023-04-06T10:11:19;9.07;;;7.03;;
15287;SDS011;7745;48.708;9.026;2023-04-06T10:13:47;10.70;;;6.40;;
15287;SDS011;7745;48.708;9.026;2023-04-06T10:16:15;8.20;;;6.13;;
15287;SDS011;7745;48.708;9.026;2023-04-06T10:18:44;7.53;;;5.77;;
15287;SDS011;7745;48.708;9.026;2023-04-06T10:21:18;7.57;;;6.70;;
15287;SDS011;7745;48.708;9.026;2023-04-06T10:23:49;7.77;;;6.43;;
15287;SDS011;7745;48.708;9.026;2023-04-06T10:26:19;7.57;;;6.23;;
15287;SDS011;7745;48.708;9.026;2023-04-06T10:28:47;8.07;;;6.13;;
15287;SDS011;7745;48.708;9.026;2023-04-06T10:31:15;8.90;;;5.67;;
15287;SDS011;7745;48.708;9.026;2023-04-06T10:33:54;9.60;;;6.20;;
15287;SDS011;7745;48.708;9.026;2023-04-06T10:36:22;7.03;;;5.73;;
15287;SDS011;7745;48.708;9.026;2023-04-06T10:38:55;7.50;;;6.30;;
15287;SDS011;7745;48.708;9.026;2023-04-06T10:41:23;7.77;;;6.37;;
15287;SDS011;7745;48.708;9.026;2023-04-06T10:43:54;8.17;;;6.57;;
15287;SDS011;7745;48.708;9.026;2023-04-06T10:46:24;7.57;;;6.07;;
15287;SDS011;7745;48.708;9.026;2023-04-06T10:48:52;9.13;;;6.07;;
15287;SDS011;7745;48.708;9.026;2023-04-06T10:51:19;10.17;;;6.13;;
15287;SDS011;7745;48.708;9.026;2023-04-06T10:53:52;8.37;;;6.13;;
15287;SDS011;7745;48.708;9.026;2023-04-06T10:56:21;6.67;;;5.77;;
15287;SDS011;7745;48.708;9.026;2023-04-06T10:58:52;6.80;;;5.90;;
15287;SDS011;7745;48.708;9.026;2023-04-06T11:01:21;6.87;;;5.90;;
15287;SDS011;7745;48.708;9.026;2023-04-06T11:03:49;8.83;;;5.97;;
15287;SDS011;7745;48.708;9.026;2023-04-06T11:06:17;6.73;;;5.33;;
15287;SDS011;7745;48.708;9.026;2023-04-06T11:08:45;7.83;;;5.37;;
15287;SDS011;7745;48.708;9.026;2023-04-06T11:11:15;6.90;;;5.50;;
15287;SDS011;7745;48.708;9.026;2023-04-06T11:13:44;6.57;;;5.87;;
15287;SDS011;7745;48.708;9.026;2023-04-06T11:16:12;8.73;;;5.87;;
15287;SDS011;7745;48.708;9.026;2023-04-06T11:18:47;8.33;;;5.80;;
15287;SDS011;7745;48.708;9.026;2023-04-06T11:21:18;8.27;;;5.07;;
15287;SDS011;7745;48.708;9.026;2023-04-06T11:23:47;7.60;;;5.90;;
15287;SDS011;7745;48.708;9.026;2023-04-06T11:26:16;7.73;;;6.10;;
15287;SDS011;7745;48.708;9.026;2023-04-06T11:28:42;6.30;;;5.23;;
15287;SDS011;7745;48.708;9.026;2023-04-06T11:31:10;6.03;;;5.43;;
15287;SDS011;7745;48.708;9.026;2023-04-06T11:33:37;7.00;;;5.83;;
15287;SDS011;7745;48.708;9.026;2023-04-06T11:36:05;6.20;;;5.53;;
15287;SDS011;7745;48.708;9.026;2023-04-06T11:38:33;6.90;;;5.43;;
15287;SDS011;7745;48.708;9.026;2023-04-06T11:41:00;8.83;;;6.07;;
15287;SDS011;7745;48.708;9.026;2023-04-06T11:43:30;8.33;;;5.83;;
15287;SDS011;7745;48.708;9.026;2023-04-06T11:46:00;7.77;;;5.83;;
15287;SDS011;7745;48.708;9.026;2023-04-06T11:48:28;8.30;;;5.80;;
15287;SDS011;7745;48.708;9.026;2023-04-06T11:50:55;6.90;;;5.10;;
15287;SDS011;7745;48.708;9.026;2023-04-06T11:53:23;6.13;;;5.50;;
15287;SDS011;7745;48.708;9.026;2023-04-06T11:55:50;5.93;;;5.33;;
15287;SDS011;7745;48.708;9.026;2023-04-06T11:58:17;7.73;;;5.63;;
15287;SDS011;7745;48.708;9.026;2023-04-06T12:00:46;7.60;;;5.70;;
15287;SDS011;7745;48.708;9.026;2023-04-06T12:03:13;9.27;;;6.03;;
15287;SDS011;7745;48.708;9.026;2023-04-06T12:05:40;7.53;;;6.10;;
15287;SDS011;7745;48.708;9.026;2023-04-06T12:08:07;6.90;;;5.33;;
15287;SDS011;7745;48.708;9.026;2023-04-06T12:10:34;8.17;;;6.53;;
15287;SDS011;7745;48.708;9.026;2023-04-06T12:13:00;9.00;;;6.30;;
15287;SDS011;7745;48.708;9.026;2023-04-06T12:15:27;7.57;;;5.83;;
15287;SDS011;7745;48.708;9.026;2023-04-06T12:17:55;7.10;;;6.40;;
15287;SDS011;7745;48.708;9.026;2023-04-06T12:20:22;7.67;;;6.37;;
15287;SDS011;7745;48.708;9.026;2023-04-06T12:22:49;8.37;;;7.13;;
15287;SDS011;7745;48.708;9.026;2023-04-06T12:25:16;7.53;;;6.73;;
15287;SDS011;7745;48.708;9.026;2023-04-06T12:27:43;7.93;;;6.00;;
15287;SDS011;7745;48.708;9.026;2023-04-06T12:30:10;7.67;;;5.90;;
15287;SDS011;7745;48.708;9.026;2023-04-06T12:32:38;6.47;;;5.60;;
15287;SDS011;7745;48.708;9.026;2023-04-06T12:35:06;6.93;;;5.90;;
15287;SDS011;7745;48.708;9.026;2023-04-06T12:37:34;6.73;;;5.90;;
15287;SDS011;7745;48.708;9.026;2023-04-06T12:40:01;9.40;;;5.67;;
15287;SDS011;7745;48.708;9.026;2023-04-06T12:42:29;7.87;;;7.07;;
15287;SDS011;7745;48.708;9.026;2023-04-06T12:44:56;9.40;;;5.73;;
15287;SDS011;7745;48.708;9.026;2023-04-06T12:47:23;7.90;;;6.33;;
15287;SDS011;7745;48.708;9.026;2023-04-06T12:49:51;9.47;;;6.90;;
15287;SDS011;7745;48.708;9.026;2023-04-06T12:52:20;8.37;;;6.63;;
15287;SDS011;7745;48.708;9.026;2023-04-06T12:54:47;8.33;;;6.50;;
15287;SDS011;7745;48.708;9.026;2023-04-06T12:57:14;10.17;;;6.37;;
15287;SDS011;7745;48.708;9.026;2023-04-06T12:59:42;9.60;;;6.43;;
15287;SDS011;7745;48.708;9.026;2023-04-06T13:02:09;6.23;;;5.20;;
15287;SDS011;7745;48.708;9.026;2023-04-06T13:04:36;8.20;;;6.10;;
15287;SDS011;7745;48.708;9.026;2023-04-06T13:07:03;7.27;;;6.00;;
15287;SDS011;7745;48.708;9.026;2023-04-06T13:09:31;6.70;;;5.73;;
15287;SDS011;7745;48.708;9.026;2023-04-06T13:11:58;8.80;;;5.80;;
15287;SDS011;7745;48.708;9.026;2023-04-06T13:14:26;7.30;;;5.17;;
15287;SDS011;7745;48.708;9.026;2023-04-06T13:16:52;6.30;;;5.37;;
15287;SDS011;7745;48.708;9.026;2023-04-06T13:19:19;5.77;;;4.87;;
15287;SDS011;7745;48.708;9.026;2023-04-06T13:21:46;6.33;;;5.10;;
15287;SDS011;7745;48.708;9.026;2023-04-06T13:24:13;7.80;;;4.97;;
15287;SDS011;7745;48.708;9.026;2023-04-06T13:26:41;7.53;;;5.43;;
15287;SDS011;7745;48.708;9.026;2023-04-06T13:29:09;7.43;;;5.13;;
15287;SDS011;7745;48.708;9.026;2023-04-06T13:31:35;8.37;;;5.67;;
15287;SDS011;7745;48.708;9.026;2023-04-06T13:34:03;7.33;;;5.50;;
15287;SDS011;7745;48.708;9.026;2023-04-06T13:36:30;6.80;;;5.57;;
15287;SDS011;7745;48.708;9.026;2023-04-06T13:38:57;7.53;;;5.30;;
15287;SDS011;7745;48.708;9.026;2023-04-06T13:41:24;8.00;;;4.93;;
15287;SDS011;7745;48.708;9.026;2023-04-06T13:43:53;6.50;;;5.43;;
15287;SDS011;7745;48.708;9.026;2023-04-06T13:46:20;6.77;;;5.77;;
15287;SDS011;7745;48.708;9.026;2023-04-06T13:48:48;5.70;;;5.10;;
15287;SDS011;7745;48.708;9.026;2023-04-06T13:51:16;6.10;;;5.23;;
15287;SDS011;7745;48.708;9.026;2023-04-06T13:53:42;6.27;;;5.17;;
15287;SDS011;7745;48.708;9.026;2023-04-06T13:56:09;8.17;;;5.70;;
15287;SDS011;7745;48.708;9.026;2023-04-06T13:58:36;7.93;;;6.60;;
15287;SDS011;7745;48.708;9.026;2023-04-06T14:01:05;6.30;;;5.13;;
15287;SDS011;7745;48.708;9.026;2023-04-06T14:03:34;6.97;;;5.07;;
15287;SDS011;7745;48.708;9.026;2023-04-06T14:06:10;7.47;;;6.17;;
15287;SDS011;7745;48.708;9.026;2023-04-06T14:08:37;6.27;;;5.27;;
15287;SDS011;7745;48.708;9.026;2023-04-06T14:11:04;7.50;;;5.20;;
15287;SDS011;7745;48.708;9.026;2023-04-06T14:13:33;7.13;;;5.77;;
15287;SDS011;7745;48.708;9.026;2023-04-06T14:16:00;5.97;;;5.37;;
15287;SDS011;7745;48.708;9.026;2023-04-06T14:18:28;6.90;;;5.60;;
15287;SDS011;7745;48.708;9.026;2023-04-06T14:20:56;6.60;;;5.80;;
15287;SDS011;7745;48.708;9.026;2023-04-06T14:23:23;7.60;;;5.63;;
15287;SDS011;7745;48.708;9.026;2023-04-06T14:25:51;7.77;;;5.73;;
15287;SDS011;7745;48.708;9.026;2023-04-06T14:28:27;6.97;;;6.20;;
15287;SDS011;7745;48.708;9.026;2023-04-06T14:30:54;11.30;;;6.40;;
15287;SDS011;7745;48.708;9.026;2023-04-06T14:33:21;7.63;;;6.17;;
15287;SDS011;7745;48.708;9.026;2023-04-06T14:35:49;6.90;;;6.20;;
15287;SDS011;7745;48.708;9.026;2023-04-06T14:38:16;7.27;;;5.73;;
15287;SDS011;7745;48.708;9.026;2023-04-06T14:40:42;8.23;;;6.40;;
15287;SDS011;7745;48.708;9.026;2023-04-06T14:43:10;6.70;;;5.63;;
15287;SDS011;7745;48.708;9.026;2023-04-06T14:45:37;7.47;;;5.67;;
15287;SDS011;7745;48.708;9.026;2023-04-06T14:48:04;8.10;;;5.63;;
15287;SDS011;7745;48.708;9.026;2023-04-06T14:50:32;6.50;;;5.47;;